»·PEaware :: ACA554 KDCA-KATL

ACA554 :: KDCA-KATL

FLIGHT INFORMATION

Flight Status: Arrived
Operator:
Air Canada
More flights by this operator :: More flights under this callsign
Pilot: Shawn G. (7208)
Aircraft: AIRBUS A320
(A320)
More flights by this aircraft type
Origin: KDCA Ronald Reagan Washington Natl
United States
Destination: KATL Hartsfield-Jackson Atlanta
United States
More flights between these airports :: More routes between these airports
Route: CLTCH1 FLASK OZZZI1
File this flight plan on PilotEdge
Remarks:
Altitude:
(Current/Filed)
32,000ft
Speed:
(Current/Filed)
449kts
Departed: 02-Dec-17 10:48 PM
Arrived: 03-Dec-17 12:11 AM
Distance/Time
Traveled:
475nm/1:23
Distance/Time
To Go:
Arrived

Flight Plot

Page will automatically refresh every two minutes.

Flight plan parsing failed; only flown route is shown


Map Options




Map Legend


Flown Route
Filed Route
Departure Airport
Arrival Airport
Navaid (VOR, NDB)
Fix

Horizontal Profiles

Position Reports

Time Latitude Longitude Heading Altitude Ground
Speed
02-Dec-17 22:43 38.852704 -77.041165 199 23ft 0kts
02-Dec-17 22:44 38.852704 -77.041165 199 23ft 0kts
02-Dec-17 22:45 38.853000 -77.041270 125 23ft 2kts
02-Dec-17 22:46 38.852985 -77.041784 78 23ft 0kts
02-Dec-17 22:47 38.852985 -77.041784 78 23ft 0kts
02-Dec-17 22:48 38.852985 -77.041783 78 23ft 0kts
02-Dec-17 22:49 38.854011 -77.040056 354 23ft 8kts
02-Dec-17 22:50 38.857038 -77.040519 357 23ft 9kts
02-Dec-17 22:51 38.859070 -77.040610 12 23ft 1kts
02-Dec-17 22:52 38.860976 -77.039255 57 23ft 8kts
02-Dec-17 22:53 38.849426 -77.037422 176 25ft 154kts
02-Dec-17 22:54 38.800153 -77.036574 177 2819ft 201kts
02-Dec-17 22:55 38.747388 -77.072492 261 5305ft 269kts
02-Dec-17 22:56 38.731133 -77.164912 247 8977ft 278kts
02-Dec-17 22:57 38.698709 -77.257514 250 11751ft 310kts
02-Dec-17 22:58 38.665095 -77.363216 251 14530ft 326kts
02-Dec-17 22:59 38.630622 -77.471245 252 17217ft 332kts
02-Dec-17 23:00 38.595462 -77.580955 252 19591ft 339kts
02-Dec-17 23:01 38.559371 -77.693095 252 21699ft 346kts
02-Dec-17 23:02 38.518515 -77.805618 238 23628ft 365kts
02-Dec-17 23:03 38.449835 -77.903366 239 25349ft 372kts
02-Dec-17 23:04 38.389551 -78.010614 243 26921ft 376kts
02-Dec-17 23:05 38.328865 -78.119852 243 28345ft 382kts
02-Dec-17 23:06 38.267042 -78.230766 243 29633ft 388kts
02-Dec-17 23:07 38.204221 -78.343070 244 30892ft 391kts
02-Dec-17 23:08 38.140222 -78.453353 243 32278ft 388kts
02-Dec-17 23:09 38.075541 -78.561513 243 32287ft 390kts
02-Dec-17 23:10 38.008528 -78.673163 242 32290ft 411kts
02-Dec-17 23:11 37.939359 -78.787949 242 32292ft 411kts
02-Dec-17 23:12 37.870481 -78.901904 242 32287ft 410kts
02-Dec-17 23:13 37.801282 -79.015993 242 32294ft 410kts
02-Dec-17 23:14 37.731866 -79.130037 242 32320ft 408kts
02-Dec-17 23:15 37.663413 -79.243345 243 32312ft 405kts
02-Dec-17 23:16 37.596264 -79.356751 243 32299ft 404kts
02-Dec-17 23:17 37.528948 -79.469865 243 32298ft 404kts
02-Dec-17 23:18 37.461551 -79.582706 243 32305ft 405kts
02-Dec-17 23:19 37.393922 -79.695557 242 32322ft 407kts
02-Dec-17 23:20 37.325625 -79.809118 242 32343ft 408kts
02-Dec-17 23:21 37.257324 -79.922306 242 32339ft 408kts
02-Dec-17 23:22 37.188978 -80.035187 242 32322ft 407kts
02-Dec-17 23:23 37.120348 -80.148155 242 32313ft 407kts
02-Dec-17 23:24 37.051874 -80.260496 242 32282ft 408kts
02-Dec-17 23:25 36.976317 -80.369473 235 32269ft 422kts
02-Dec-17 23:26 36.894141 -80.474590 234 32308ft 427kts
02-Dec-17 23:27 36.811183 -80.580366 234 32309ft 427kts
02-Dec-17 23:28 36.731802 -80.681226 234 32276ft 403kts
02-Dec-17 23:29 36.653135 -80.780935 234 32278ft 404kts
02-Dec-17 23:30 36.574455 -80.880316 234 32259ft 404kts
02-Dec-17 23:31 36.495639 -80.979566 234 32286ft 404kts
02-Dec-17 23:32 36.416747 -81.078606 234 32329ft 404kts
02-Dec-17 23:33 36.337731 -81.177493 234 32320ft 403kts
02-Dec-17 23:34 36.259134 -81.275703 234 32301ft 403kts
02-Dec-17 23:35 36.180205 -81.374074 234 32321ft 403kts
02-Dec-17 23:36 36.101282 -81.472136 234 32302ft 403kts
02-Dec-17 23:37 36.021923 -81.570439 234 32308ft 404kts
02-Dec-17 23:38 35.942936 -81.667991 234 32325ft 404kts
02-Dec-17 23:39 35.863896 -81.765309 234 32338ft 404kts
02-Dec-17 23:40 35.784517 -81.862703 233 32322ft 404kts
02-Dec-17 23:41 35.704120 -81.958892 233 32293ft 404kts
02-Dec-17 23:42 35.623724 -82.054892 233 32279ft 404kts
02-Dec-17 23:43 35.543218 -82.150761 233 32281ft 404kts
02-Dec-17 23:44 35.462489 -82.246613 233 32286ft 405kts
02-Dec-17 23:45 35.383075 -82.343236 235 32291ft 403kts
02-Dec-17 23:46 35.304278 -82.441059 235 32293ft 404kts
02-Dec-17 23:47 35.225611 -82.538434 235 32295ft 403kts
02-Dec-17 23:48 35.146525 -82.635737 234 32287ft 405kts
02-Dec-17 23:49 35.065993 -82.731152 233 32289ft 406kts
02-Dec-17 23:50 34.985094 -82.826943 233 32284ft 408kts
02-Dec-17 23:51 34.902993 -82.923308 232 32265ft 412kts
02-Dec-17 23:52 34.820651 -83.018514 232 32295ft 413kts
02-Dec-17 23:53 34.737835 -83.114074 233 32297ft 412kts
02-Dec-17 23:54 34.659861 -83.203628 233 30356ft 367kts
02-Dec-17 23:55 34.587841 -83.286333 233 27003ft 354kts
02-Dec-17 23:56 34.517954 -83.366596 232 23715ft 341kts
02-Dec-17 23:57 34.451004 -83.443524 231 20910ft 324kts
02-Dec-17 23:58 34.386308 -83.517766 230 19112ft 320kts
02-Dec-17 23:59 34.322527 -83.590710 230 17505ft 311kts
03-Dec-17 00:00 34.259853 -83.659963 227 15961ft 304kts
03-Dec-17 00:01 34.197193 -83.726667 226 14443ft 298kts
03-Dec-17 00:02 34.135418 -83.792291 225 12935ft 294kts
03-Dec-17 00:03 34.074998 -83.856571 225 11566ft 290kts
03-Dec-17 00:04 34.015038 -83.920970 225 10367ft 291kts
03-Dec-17 00:05 33.946702 -83.967401 180 9153ft 299kts
03-Dec-17 00:06 33.865482 -83.963796 179 8524ft 296kts
03-Dec-17 00:07 33.783653 -83.960351 179 8042ft 293kts
03-Dec-17 00:08 33.706490 -83.982552 204 6811ft 289kts
03-Dec-17 00:09 33.649352 -84.037078 268 5702ft 262kts
03-Dec-17 00:10 33.650098 -84.118876 271 5151ft 232kts
03-Dec-17 00:11 33.649856 -84.192123 271 4560ft 215kts
03-Dec-17 00:12 33.649710 -84.260803 271 3473ft 183kts
03-Dec-17 00:13 33.649637 -84.315105 271 2567ft 141kts
03-Dec-17 00:14 33.649591 -84.361102 270 1854ft 137kts
03-Dec-17 00:15 33.649535 -84.406389 270 1132ft 135kts
03-Dec-17 00:16 33.648961 -84.427520 240 1031ft 10kts
03-Dec-17 00:17 33.647066 -84.428760 175 1031ft 13kts
03-Dec-17 00:18 33.643745 -84.427311 175 1031ft 16kts
03-Dec-17 00:19 33.638360 -84.427320 179 1031ft 9kts
03-Dec-17 00:20 33.636548 -84.426395 87 1031ft 6kts
03-Dec-17 00:21 33.636556 -84.421846 90 1031ft 18kts
03-Dec-17 00:22 33.636602 -84.418374 67 1031ft 7kts
03-Dec-17 00:23 33.638336 -84.417933 69 1031ft 1kts
03-Dec-17 00:24 33.636553 -84.419397 269 1031ft 11kts
03-Dec-17 00:25 33.637031 -84.421608 358 1031ft 10kts
03-Dec-17 00:26 33.637306 -84.420278 91 1031ft 0kts
03-Dec-17 00:27 33.637306 -84.420278 91 1031ft 0kts
03-Dec-17 00:28 33.637306 -84.420278 91 1031ft 0kts

Navigation Log

Ident Type
Flight plan parsing failed, navigation log unavailable